sensor_id;sensor_type;location;lat;lon;timestamp;pressure;altitude;pressure_sealevel;temperature;humidity
75938;BME280;64615;32.062;34.834;2023-12-07T00:01:18;101256.06;;;23.30;58.91
75938;BME280;64615;32.062;34.834;2023-12-07T00:03:44;101253.94;;;23.32;58.85
75938;BME280;64615;32.062;34.834;2023-12-07T00:06:10;101257.25;;;23.34;58.71
75938;BME280;64615;32.062;34.834;2023-12-07T00:08:35;101258.88;;;23.35;58.62
75938;BME280;64615;32.062;34.834;2023-12-07T00:11:01;101261.09;;;23.38;58.80
75938;BME280;64615;32.062;34.834;2023-12-07T00:13:27;101263.81;;;23.38;58.77
75938;BME280;64615;32.062;34.834;2023-12-07T00:15:52;101257.56;;;23.38;58.81
75938;BME280;64615;32.062;34.834;2023-12-07T00:18:18;101266.25;;;23.40;58.70
75938;BME280;64615;32.062;34.834;2023-12-07T00:20:44;101263.31;;;23.41;58.81
75938;BME280;64615;32.062;34.834;2023-12-07T00:23:10;101260.59;;;23.41;58.45
75938;BME280;64615;32.062;34.834;2023-12-07T00:25:36;101258.69;;;23.42;58.45
75938;BME280;64615;32.062;34.834;2023-12-07T00:28:01;101260.34;;;23.43;58.38
75938;BME280;64615;32.062;34.834;2023-12-07T00:30:28;101256.81;;;23.42;58.63
75938;BME280;64615;32.062;34.834;2023-12-07T00:32:54;101260.34;;;23.43;58.74
75938;BME280;64615;32.062;34.834;2023-12-07T00:35:19;101258.13;;;23.40;58.77
75938;BME280;64615;32.062;34.834;2023-12-07T00:37:48;101255.66;;;23.38;58.71
75938;BME280;64615;32.062;34.834;2023-12-07T00:40:13;101252.38;;;23.36;58.50
75938;BME280;64615;32.062;34.834;2023-12-07T00:42:39;101251.53;;;23.36;58.64
75938;BME280;64615;32.062;34.834;2023-12-07T00:45:05;101252.06;;;23.33;58.55
75938;BME280;64615;32.062;34.834;2023-12-07T00:47:31;101252.88;;;23.33;58.55
75938;BME280;64615;32.062;34.834;2023-12-07T00:49:57;101256.66;;;23.32;58.60
75938;BME280;64615;32.062;34.834;2023-12-07T00:52:22;101259.13;;;23.34;58.80
75938;BME280;64615;32.062;34.834;2023-12-07T00:54:48;101255.59;;;23.33;58.74
75938;BME280;64615;32.062;34.834;2023-12-07T00:57:13;101260.22;;;23.33;58.41
75938;BME280;64615;32.062;34.834;2023-12-07T00:59:39;101250.66;;;23.30;58.70
75938;BME280;64615;32.062;34.834;2023-12-07T01:02:06;101250.91;;;23.29;58.76
75938;BME280;64615;32.062;34.834;2023-12-07T01:04:32;101252.81;;;23.28;58.69
75938;BME280;64615;32.062;34.834;2023-12-07T01:06:58;101253.63;;;23.29;58.65
75938;BME280;64615;32.062;34.834;2023-12-07T01:09:24;101253.88;;;23.27;58.84
75938;BME280;64615;32.062;34.834;2023-12-07T01:11:50;101247.63;;;23.27;58.59
75938;BME280;64615;32.062;34.834;2023-12-07T01:14:16;101254.69;;;23.28;58.62
75938;BME280;64615;32.062;34.834;2023-12-07T01:16:43;101252.00;;;23.28;58.47
75938;BME280;64615;32.062;34.834;2023-12-07T01:19:09;101250.34;;;23.27;58.48
75938;BME280;64615;32.062;34.834;2023-12-07T01:21:34;101252.22;;;23.26;58.40
75938;BME280;64615;32.062;34.834;2023-12-07T01:24:00;101249.75;;;23.24;58.39
75938;BME280;64615;32.062;34.834;2023-12-07T01:26:26;101261.44;;;23.25;58.24
75938;BME280;64615;32.062;34.834;2023-12-07T01:28:51;101255.19;;;23.24;58.57
75938;BME280;64615;32.062;34.834;2023-12-07T01:31:17;101245.66;;;23.22;58.33
75938;BME280;64615;32.062;34.834;2023-12-07T01:33:43;101244.31;;;23.24;58.14
75938;BME280;64615;32.062;34.834;2023-12-07T01:36:10;101237.00;;;23.25;58.16
75938;BME280;64615;32.062;34.834;2023-12-07T01:38:36;101238.66;;;23.26;58.33
75938;BME280;64615;32.062;34.834;2023-12-07T01:41:02;101230.50;;;23.26;58.16
75938;BME280;64615;32.062;34.834;2023-12-07T01:43:27;101219.38;;;23.28;58.05
75938;BME280;64615;32.062;34.834;2023-12-07T01:45:54;101226.47;;;23.29;57.84
75938;BME280;64615;32.062;34.834;2023-12-07T01:48:24;101233.53;;;23.30;57.89
75938;BME280;64615;32.062;34.834;2023-12-07T01:50:56;101229.97;;;23.29;57.79
75938;BME280;64615;32.062;34.834;2023-12-07T01:53:23;101239.53;;;23.32;57.84
75938;BME280;64615;32.062;34.834;2023-12-07T01:55:51;101236.81;;;23.32;57.82
75938;BME280;64615;32.062;34.834;2023-12-07T01:58:19;101246.63;;;23.33;57.70
75938;BME280;64615;32.062;34.834;2023-12-07T02:00:45;101246.63;;;23.33;57.58
75938;BME280;64615;32.062;34.834;2023-12-07T02:03:12;101252.59;;;23.35;57.67
75938;BME280;64615;32.062;34.834;2023-12-07T02:05:42;101260.75;;;23.35;57.69
75938;BME280;64615;32.062;34.834;2023-12-07T02:08:08;101267.28;;;23.34;57.67
75938;BME280;64615;32.062;34.834;2023-12-07T02:10:34;101259.13;;;23.34;57.96
75938;BME280;64615;32.062;34.834;2023-12-07T02:13:01;101261.50;;;23.30;57.98
75938;BME280;64615;32.062;34.834;2023-12-07T02:15:29;101259.31;;;23.27;57.87
75938;BME280;64615;32.062;34.834;2023-12-07T02:18:14;101258.72;;;23.25;58.00
75938;BME280;64615;32.062;34.834;2023-12-07T02:23:12;101254.63;;;23.22;58.04
75938;BME280;64615;32.062;34.834;2023-12-07T02:28:46;101249.69;;;23.19;58.06
75938;BME280;64615;32.062;34.834;2023-12-07T02:31:12;101262.19;;;23.20;58.25
75938;BME280;64615;32.062;34.834;2023-12-07T02:33:37;101260.81;;;23.18;57.95
75938;BME280;64615;32.062;34.834;2023-12-07T02:36:04;101265.16;;;23.19;57.93
75938;BME280;64615;32.062;34.834;2023-12-07T02:38:30;101258.09;;;23.18;58.20
75938;BME280;64615;32.062;34.834;2023-12-07T02:40:57;101270.03;;;23.17;58.14
75938;BME280;64615;32.062;34.834;2023-12-07T02:43:23;101276.28;;;23.17;58.22
75938;BME280;64615;32.062;34.834;2023-12-07T02:45:48;101266.25;;;23.18;58.08
75938;BME280;64615;32.062;34.834;2023-12-07T02:48:14;101272.50;;;23.18;57.91
75938;BME280;64615;32.062;34.834;2023-12-07T02:50:42;101268.44;;;23.21;57.95
75938;BME280;64615;32.062;34.834;2023-12-07T02:53:08;101273.06;;;23.20;58.08
75938;BME280;64615;32.062;34.834;2023-12-07T02:55:34;101270.84;;;23.17;58.00
75938;BME280;64615;32.062;34.834;2023-12-07T02:58:00;101273.56;;;23.17;57.89
75938;BME280;64615;32.062;34.834;2023-12-07T03:00:25;101283.38;;;23.18;58.00
75938;BME280;64615;32.062;34.834;2023-12-07T03:02:51;101286.31;;;23.17;57.79
75938;BME280;64615;32.062;34.834;2023-12-07T03:05:17;101291.50;;;23.18;58.01
75938;BME280;64615;32.062;34.834;2023-12-07T03:07:46;101288.28;;;23.21;57.81
75938;BME280;64615;32.062;34.834;2023-12-07T03:10:12;101289.94;;;23.22;57.85
75938;BME280;64615;32.062;34.834;2023-12-07T03:12:37;101286.94;;;23.24;57.65
75938;BME280;64615;32.062;34.834;2023-12-07T03:15:03;101286.47;;;23.27;57.56
75938;BME280;64615;32.062;34.834;2023-12-07T03:17:30;101285.97;;;23.30;57.56
75938;BME280;64615;32.062;34.834;2023-12-07T03:19:57;101290.09;;;23.33;57.41
75938;BME280;64615;32.062;34.834;2023-12-07T03:22:23;101279.78;;;23.35;57.32
75938;BME280;64615;32.062;34.834;2023-12-07T03:24:51;101290.66;;;23.35;57.35
75938;BME280;64615;32.062;34.834;2023-12-07T03:27:18;101297.72;;;23.36;57.62
75938;BME280;64615;32.062;34.834;2023-12-07T03:29:43;101298.56;;;23.36;57.32
75938;BME280;64615;32.062;34.834;2023-12-07T03:32:09;101300.44;;;23.36;57.47
75938;BME280;64615;32.062;34.834;2023-12-07T03:34:35;101310.50;;;23.35;57.33
75938;BME280;64615;32.062;34.834;2023-12-07T03:37:00;101312.66;;;23.33;57.64
75938;BME280;64615;32.062;34.834;2023-12-07T03:39:26;101311.25;;;23.31;57.74
75938;BME280;64615;32.062;34.834;2023-12-07T03:41:52;101307.38;;;23.27;57.82
75938;BME280;64615;32.062;34.834;2023-12-07T03:44:18;101317.66;;;23.24;57.96
75938;BME280;64615;32.062;34.834;2023-12-07T03:46:43;101314.13;;;23.24;57.83
75938;BME280;64615;32.062;34.834;2023-12-07T03:49:09;101305.41;;;23.22;57.92
75938;BME280;64615;32.062;34.834;2023-12-07T03:51:34;101301.88;;;23.21;57.89
75938;BME280;64615;32.062;34.834;2023-12-07T03:54:02;101303.75;;;23.21;58.02
75938;BME280;64615;32.062;34.834;2023-12-07T03:56:29;101311.09;;;23.20;58.21
75938;BME280;64615;32.062;34.834;2023-12-07T03:58:55;101314.63;;;23.21;58.58
75938;BME280;64615;32.062;34.834;2023-12-07T04:01:26;101304.16;;;23.30;58.40
75938;BME280;64615;32.062;34.834;2023-12-07T04:03:52;101309.34;;;23.31;58.36
75938;BME280;64615;32.062;34.834;2023-12-07T04:06:18;101317.50;;;23.31;58.46
75938;BME280;64615;32.062;34.834;2023-12-07T04:08:44;101316.44;;;23.32;58.61
75938;BME280;64615;32.062;34.834;2023-12-07T04:11:12;101311.81;;;23.33;58.60
75938;BME280;64615;32.062;34.834;2023-12-07T04:13:37;101314.19;;;23.29;58.64
75938;BME280;64615;32.062;34.834;2023-12-07T04:16:03;101326.06;;;23.23;58.38
75938;BME280;64615;32.062;34.834;2023-12-07T04:18:29;101318.34;;;23.15;58.26
75938;BME280;64615;32.062;34.834;2023-12-07T04:20:55;101319.91;;;23.11;58.45
75938;BME280;64615;32.062;34.834;2023-12-07T04:23:20;101322.69;;;22.99;57.33
75938;BME280;64615;32.062;34.834;2023-12-07T04:25:46;101325.28;;;22.77;56.54
75938;BME280;64615;32.062;34.834;2023-12-07T04:28:12;101323.75;;;22.82;55.94
75938;BME280;64615;32.062;34.834;2023-12-07T04:30:37;101330.19;;;22.92;55.13
75938;BME280;64615;32.062;34.834;2023-12-07T04:33:03;101328.28;;;22.93;55.96
75938;BME280;64615;32.062;34.834;2023-12-07T04:35:29;101325.31;;;22.94;54.87
75938;BME280;64615;32.062;34.834;2023-12-07T04:37:55;101320.56;;;23.01;55.01
75938;BME280;64615;32.062;34.834;2023-12-07T04:40:20;101320.41;;;23.08;55.01
75938;BME280;64615;32.062;34.834;2023-12-07T04:42:46;101317.41;;;23.09;55.01
75938;BME280;64615;32.062;34.834;2023-12-07T04:45:12;101318.09;;;23.16;54.82
75938;BME280;64615;32.062;34.834;2023-12-07T04:47:37;101319.75;;;23.17;54.86
75938;BME280;64615;32.062;34.834;2023-12-07T04:50:03;101326.81;;;23.18;55.17
75938;BME280;64615;32.062;34.834;2023-12-07T04:52:29;101335.06;;;23.23;55.06
75938;BME280;64615;32.062;34.834;2023-12-07T04:54:54;101330.50;;;23.29;55.18
75938;BME280;64615;32.062;34.834;2023-12-07T04:57:20;101326.56;;;23.37;55.70
75938;BME280;64615;32.062;34.834;2023-12-07T04:59:46;101330.09;;;23.37;55.34
75938;BME280;64615;32.062;34.834;2023-12-07T05:02:18;101324.31;;;23.50;55.08
75938;BME280;64615;32.062;34.834;2023-12-07T05:04:44;101325.75;;;23.53;54.34
75938;BME280;64615;32.062;34.834;2023-12-07T05:07:13;101326.63;;;23.42;55.18
75938;BME280;64615;32.062;34.834;2023-12-07T05:09:39;101335.00;;;23.40;55.10
75938;BME280;64615;32.062;34.834;2023-12-07T05:12:06;101340.97;;;23.54;54.31
75938;BME280;64615;32.062;34.834;2023-12-07T05:14:32;101342.41;;;23.45;54.60
75938;BME280;64615;32.062;34.834;2023-12-07T05:16:58;101336.81;;;23.68;53.85
75938;BME280;64615;32.062;34.834;2023-12-07T05:19:24;101329.06;;;23.98;53.10
75938;BME280;64615;32.062;34.834;2023-12-07T05:21:51;101331.72;;;23.93;52.98
75938;BME280;64615;32.062;34.834;2023-12-07T05:24:16;101325.44;;;23.71;53.78
75938;BME280;64615;32.062;34.834;2023-12-07T05:26:43;101335.75;;;23.69;54.31
75938;BME280;64615;32.062;34.834;2023-12-07T05:29:08;101340.53;;;24.00;53.69
75938;BME280;64615;32.062;34.834;2023-12-07T05:31:35;101347.97;;;24.27;53.01
75938;BME280;64615;32.062;34.834;2023-12-07T05:34:02;101354.50;;;24.53;52.98
75938;BME280;64615;32.062;34.834;2023-12-07T05:36:28;101348.16;;;24.69;52.61
75938;BME280;64615;32.062;34.834;2023-12-07T05:38:53;101343.28;;;24.76;52.88
75938;BME280;64615;32.062;34.834;2023-12-07T05:41:19;101337.06;;;24.75;52.40
75938;BME280;64615;32.062;34.834;2023-12-07T05:43:44;101350.19;;;24.83;52.73
75938;BME280;64615;32.062;34.834;2023-12-07T05:46:10;101341.06;;;24.95;52.32
75938;BME280;64615;32.062;34.834;2023-12-07T05:48:36;101343.88;;;25.05;51.63
75938;BME280;64615;32.062;34.834;2023-12-07T05:51:02;101344.22;;;25.13;51.40
75938;BME280;64615;32.062;34.834;2023-12-07T05:53:28;101336.03;;;25.13;51.13
75938;BME280;64615;32.062;34.834;2023-12-07T05:55:56;101330.34;;;25.15;51.38
75938;BME280;64615;32.062;34.834;2023-12-07T05:58:22;101325.50;;;25.22;51.02
75938;BME280;64615;32.062;34.834;2023-12-07T06:00:48;101320.88;;;25.22;51.46
75938;BME280;64615;32.062;34.834;2023-12-07T06:03:13;101322.81;;;25.27;50.82
75938;BME280;64615;32.062;34.834;2023-12-07T06:05:40;101323.69;;;25.38;50.50
75938;BME280;64615;32.062;34.834;2023-12-07T06:08:05;101336.47;;;25.32;51.04
75938;BME280;64615;32.062;34.834;2023-12-07T06:10:31;101344.13;;;25.03;51.47
75938;BME280;64615;32.062;34.834;2023-12-07T06:12:58;101351.97;;;25.26;51.09
75938;BME280;64615;32.062;34.834;2023-12-07T06:15:26;101344.59;;;25.27;50.41
75938;BME280;64615;32.062;34.834;2023-12-07T06:17:53;101347.75;;;25.14;50.32
75938;BME280;64615;32.062;34.834;2023-12-07T06:20:19;101348.75;;;25.03;49.14
75938;BME280;64615;32.062;34.834;2023-12-07T06:22:45;101351.50;;;25.08;49.19
75938;BME280;64615;32.062;34.834;2023-12-07T06:25:11;101355.59;;;25.05;48.95
75938;BME280;64615;32.062;34.834;2023-12-07T06:27:37;101367.81;;;25.03;48.60
75938;BME280;64615;32.062;34.834;2023-12-07T06:30:04;101370.03;;;25.06;48.35
75938;BME280;64615;32.062;34.834;2023-12-07T06:32:33;101371.72;;;25.12;48.23
75938;BME280;64615;32.062;34.834;2023-12-07T06:34:59;101370.34;;;25.09;48.01
75938;BME280;64615;32.062;34.834;2023-12-07T06:37:26;101374.03;;;24.71;48.32
75938;BME280;64615;32.062;34.834;2023-12-07T06:39:52;101372.66;;;24.69;48.88
75938;BME280;64615;32.062;34.834;2023-12-07T06:42:17;101363.06;;;24.66;48.58
75938;BME280;64615;32.062;34.834;2023-12-07T06:44:46;101354.97;;;24.71;49.06
75938;BME280;64615;32.062;34.834;2023-12-07T06:47:12;101367.84;;;24.81;48.63
75938;BME280;64615;32.062;34.834;2023-12-07T06:49:38;101375.97;;;24.76;48.80
75938;BME280;64615;32.062;34.834;2023-12-07T06:52:03;101385.84;;;24.82;48.37
75938;BME280;64615;32.062;34.834;2023-12-07T06:54:29;101392.78;;;24.89;48.56
75938;BME280;64615;32.062;34.834;2023-12-07T06:56:55;101390.78;;;24.85;48.73
75938;BME280;64615;32.062;34.834;2023-12-07T06:59:20;101390.63;;;24.70;48.87
75938;BME280;64615;32.062;34.834;2023-12-07T07:01:46;101383.97;;;24.61;49.31
75938;BME280;64615;32.062;34.834;2023-12-07T07:04:12;101389.41;;;24.61;49.28
75938;BME280;64615;32.062;34.834;2023-12-07T07:06:39;101385.28;;;24.53;49.63
75938;BME280;64615;32.062;34.834;2023-12-07T07:09:05;101380.38;;;24.55;49.68
75938;BME280;64615;32.062;34.834;2023-12-07T07:11:31;101378.81;;;24.59;49.83
75938;BME280;64615;32.062;34.834;2023-12-07T07:13:56;101389.94;;;24.58;49.63
75938;BME280;64615;32.062;34.834;2023-12-07T07:16:22;101376.28;;;24.53;50.21
75938;BME280;64615;32.062;34.834;2023-12-07T07:18:47;101372.78;;;24.57;49.67
75938;BME280;64615;32.062;34.834;2023-12-07T07:21:13;101369.81;;;24.59;50.08
75938;BME280;64615;32.062;34.834;2023-12-07T07:23:39;101362.78;;;24.63;49.84
75938;BME280;64615;32.062;34.834;2023-12-07T07:26:04;101369.97;;;24.74;50.91
75938;BME280;64615;32.062;34.834;2023-12-07T07:28:30;101367.81;;;25.03;52.68
75938;BME280;64615;32.062;34.834;2023-12-07T07:30:56;101368.53;;;25.20;54.41
75938;BME280;64615;32.062;34.834;2023-12-07T07:33:22;101369.78;;;25.44;52.61
75938;BME280;64615;32.062;34.834;2023-12-07T07:35:47;101368.41;;;25.42;52.82
75938;BME280;64615;32.062;34.834;2023-12-07T07:38:13;101365.56;;;25.58;52.55
75938;BME280;64615;32.062;34.834;2023-12-07T07:40:41;101366.78;;;25.09;48.57
75938;BME280;64615;32.062;34.834;2023-12-07T07:43:07;101365.53;;;24.41;49.45
75938;BME280;64615;32.062;34.834;2023-12-07T07:45:33;101359.94;;;24.09;49.49
75938;BME280;64615;32.062;34.834;2023-12-07T07:47:58;101365.69;;;23.91;49.49
75938;BME280;64615;32.062;34.834;2023-12-07T07:50:24;101359.44;;;23.90;50.00
75938;BME280;64615;32.062;34.834;2023-12-07T07:52:50;101357.25;;;23.92;49.90
75938;BME280;64615;32.062;34.834;2023-12-07T07:55:15;101358.97;;;23.98;50.58
75938;BME280;64615;32.062;34.834;2023-12-07T07:57:41;101348.28;;;23.92;49.70
75938;BME280;64615;32.062;34.834;2023-12-07T08:00:08;101344.84;;;23.96;50.20
75938;BME280;64615;32.062;34.834;2023-12-07T08:02:34;101342.19;;;24.01;50.91
75938;BME280;64615;32.062;34.834;2023-12-07T08:05:01;101341.66;;;24.04;50.97
75938;BME280;64615;32.062;34.834;2023-12-07T08:07:27;101341.13;;;24.07;50.02
75938;BME280;64615;32.062;34.834;2023-12-07T08:09:53;101342.31;;;24.12;49.81
75938;BME280;64615;32.062;34.834;2023-12-07T08:12:18;101335.53;;;24.14;50.32
75938;BME280;64615;32.062;34.834;2023-12-07T08:14:44;101337.41;;;24.14;50.18
75938;BME280;64615;32.062;34.834;2023-12-07T08:17:11;101328.19;;;24.15;50.52
75938;BME280;64615;32.062;34.834;2023-12-07T08:19:37;101337.41;;;24.14;50.38
75938;BME280;64615;32.062;34.834;2023-12-07T08:22:04;101331.97;;;24.14;50.56
75938;BME280;64615;32.062;34.834;2023-12-07T08:24:29;101329.78;;;24.11;50.96
75938;BME280;64615;32.062;34.834;2023-12-07T08:26:55;101335.22;;;24.11;50.98
75938;BME280;64615;32.062;34.834;2023-12-07T08:29:20;101319.38;;;24.07;51.08
75938;BME280;64615;32.062;34.834;2023-12-07T08:31:46;101326.16;;;24.05;50.72
75938;BME280;64615;32.062;34.834;2023-12-07T08:34:12;101322.03;;;24.02;50.70
75938;BME280;64615;32.062;34.834;2023-12-07T08:36:39;101320.66;;;24.00;50.55
75938;BME280;64615;32.062;34.834;2023-12-07T08:39:04;101311.44;;;23.79;50.56
75938;BME280;64615;32.062;34.834;2023-12-07T08:41:35;101311.66;;;23.39;49.64
75938;BME280;64615;32.062;34.834;2023-12-07T08:44:02;101311.59;;;23.17;50.15
75938;BME280;64615;32.062;34.834;2023-12-07T08:46:27;101315.06;;;23.13;50.26
75938;BME280;64615;32.062;34.834;2023-12-07T08:48:53;101318.41;;;23.03;50.18
75938;BME280;64615;32.062;34.834;2023-12-07T08:51:19;101314.31;;;23.01;50.13
75938;BME280;64615;32.062;34.834;2023-12-07T08:53:45;101310.91;;;22.94;50.49
75938;BME280;64615;32.062;34.834;2023-12-07T08:56:11;101329.63;;;23.07;51.40
75938;BME280;64615;32.062;34.834;2023-12-07T08:58:38;101312.13;;;23.36;50.29
75938;BME280;64615;32.062;34.834;2023-12-07T09:01:04;101308.59;;;23.52;50.29
75938;BME280;64615;32.062;34.834;2023-12-07T09:03:31;101310.41;;;23.63;49.94
75938;BME280;64615;32.062;34.834;2023-12-07T09:06:00;101314.56;;;23.71;50.10
75938;BME280;64615;32.062;34.834;2023-12-07T09:08:26;101308.66;;;23.74;49.76
75938;BME280;64615;32.062;34.834;2023-12-07T09:10:52;101303.50;;;23.78;49.92
75938;BME280;64615;32.062;34.834;2023-12-07T09:13:18;101292.41;;;23.79;50.12
75938;BME280;64615;32.062;34.834;2023-12-07T09:15:44;101287.78;;;23.80;50.30
75938;BME280;64615;32.062;34.834;2023-12-07T09:18:09;101288.84;;;23.79;50.02
75938;BME280;64615;32.062;34.834;2023-12-07T09:20:39;101283.41;;;23.79;50.24
75938;BME280;64615;32.062;34.834;2023-12-07T09:23:11;101282.34;;;23.80;50.17
75938;BME280;64615;32.062;34.834;2023-12-07T09:25:38;101276.91;;;23.80;50.62
75938;BME280;64615;32.062;34.834;2023-12-07T09:28:04;101273.59;;;23.78;50.54
75938;BME280;64615;32.062;34.834;2023-12-07T09:30:30;101264.63;;;23.77;50.68
75938;BME280;64615;32.062;34.834;2023-12-07T09:32:55;101262.97;;;23.76;50.54
75938;BME280;64615;32.062;34.834;2023-12-07T09:35:21;101259.19;;;23.77;51.04
75938;BME280;64615;32.062;34.834;2023-12-07T09:37:48;101271.22;;;23.81;50.56
75938;BME280;64615;32.062;34.834;2023-12-07T09:40:16;101266.59;;;23.82;50.56
75938;BME280;64615;32.062;34.834;2023-12-07T09:42:43;101264.69;;;23.82;50.97
75938;BME280;64615;32.062;34.834;2023-12-07T09:45:09;101271.53;;;23.85;50.58
75938;BME280;64615;32.062;34.834;2023-12-07T09:47:36;101266.59;;;23.82;50.88
75938;BME280;64615;32.062;34.834;2023-12-07T09:50:03;101276.38;;;23.83;50.90
75938;BME280;64615;32.062;34.834;2023-12-07T09:52:29;101274.25;;;23.85;51.13
75938;BME280;64615;32.062;34.834;2023-12-07T09:54:56;101273.44;;;23.84;50.91
75938;BME280;64615;32.062;34.834;2023-12-07T09:57:22;101266.09;;;23.85;50.85
75938;BME280;64615;32.062;34.834;2023-12-07T09:59:48;101266.66;;;23.87;50.91
75938;BME280;64615;32.062;34.834;2023-12-07T10:02:14;101263.94;;;23.87;50.98
75938;BME280;64615;32.062;34.834;2023-12-07T10:04:39;101250.09;;;23.88;51.14
75938;BME280;64615;32.062;34.834;2023-12-07T10:07:05;101247.59;;;23.87;51.04
75938;BME280;64615;32.062;34.834;2023-12-07T10:09:38;101242.44;;;23.85;51.22
75938;BME280;64615;32.062;34.834;2023-12-07T10:12:05;101243.28;;;23.86;51.74
75938;BME280;64615;32.062;34.834;2023-12-07T10:14:31;101239.16;;;23.83;51.37
75938;BME280;64615;32.062;34.834;2023-12-07T10:16:57;101234.78;;;23.82;51.34
75938;BME280;64615;32.062;34.834;2023-12-07T10:19:23;101233.72;;;23.83;51.26
75938;BME280;64615;32.062;34.834;2023-12-07T10:21:51;101237.00;;;23.85;51.67
75938;BME280;64615;32.062;34.834;2023-12-07T10:24:22;101240.56;;;23.86;51.42
75938;BME280;64615;32.062;34.834;2023-12-07T10:26:49;101241.69;;;23.90;51.16
75938;BME280;64615;32.062;34.834;2023-12-07T10:29:17;101237.38;;;23.94;51.03
75938;BME280;64615;32.062;34.834;2023-12-07T10:31:44;101241.50;;;23.96;51.15
75938;BME280;64615;32.062;34.834;2023-12-07T10:34:12;101233.34;;;23.96;51.43
75938;BME280;64615;32.062;34.834;2023-12-07T10:36:38;101239.59;;;23.97;51.32
75938;BME280;64615;32.062;34.834;2023-12-07T10:39:04;101238.50;;;23.98;51.08
75938;BME280;64615;32.062;34.834;2023-12-07T10:41:34;101237.19;;;24.00;50.87
75938;BME280;64615;32.062;34.834;2023-12-07T10:44:01;101221.09;;;23.99;51.37
75938;BME280;64615;32.062;34.834;2023-12-07T10:46:29;101216.75;;;23.98;51.23
75938;BME280;64615;32.062;34.834;2023-12-07T10:49:01;101212.13;;;23.98;51.27
75938;BME280;64615;32.062;34.834;2023-12-07T10:51:41;101213.78;;;23.99;51.23
75938;BME280;64615;32.062;34.834;2023-12-07T10:54:07;101205.88;;;23.98;51.51
75938;BME280;64615;32.062;34.834;2023-12-07T10:56:44;101201.53;;;23.97;51.60
75938;BME280;64615;32.062;34.834;2023-12-07T10:59:10;101199.88;;;23.96;51.69
75938;BME280;64615;32.062;34.834;2023-12-07T11:01:40;101194.69;;;23.94;51.52
75938;BME280;64615;32.062;34.834;2023-12-07T11:04:11;101194.69;;;23.94;51.48
75938;BME280;64615;32.062;34.834;2023-12-07T11:06:37;101181.34;;;23.93;51.52
75938;BME280;64615;32.062;34.834;2023-12-07T11:09:10;101182.16;;;23.93;51.78
75938;BME280;64615;32.062;34.834;2023-12-07T11:12:02;101181.09;;;23.94;51.97
75938;BME280;64615;32.062;34.834;2023-12-07T11:14:31;101184.63;;;23.95;51.48
75938;BME280;64615;32.062;34.834;2023-12-07T11:16:57;101185.47;;;23.95;51.74
75938;BME280;64615;32.062;34.834;2023-12-07T11:22:06;101182.16;;;23.93;51.80
75938;BME280;64615;32.062;34.834;2023-12-07T11:24:32;101189.19;;;23.89;51.98
75938;BME280;64615;32.062;34.834;2023-12-07T11:26:58;101193.50;;;23.85;51.53
75938;BME280;64615;32.062;34.834;2023-12-07T11:29:24;101191.63;;;23.86;52.17
75938;BME280;64615;32.062;34.834;2023-12-07T11:31:50;101188.91;;;23.86;52.05
75938;BME280;64615;32.062;34.834;2023-12-07T11:34:35;101201.13;;;23.88;53.42
75938;BME280;64615;32.062;34.834;2023-12-07T11:37:02;101185.34;;;23.85;53.07
75938;BME280;64615;32.062;34.834;2023-12-07T11:39:29;101186.16;;;23.86;52.71
75938;BME280;64615;32.062;34.834;2023-12-07T11:41:55;101180.16;;;23.84;52.59
75938;BME280;64615;32.062;34.834;2023-12-07T11:44:40;101186.41;;;23.84;52.78
75938;BME280;64615;32.062;34.834;2023-12-07T11:47:07;101184.78;;;23.83;52.94
75938;BME280;64615;32.062;34.834;2023-12-07T11:49:34;101184.53;;;23.85;52.80
75938;BME280;64615;32.062;34.834;2023-12-07T11:52:00;101183.94;;;23.83;52.96
75938;BME280;64615;32.062;34.834;2023-12-07T11:54:27;101194.00;;;23.82;53.30
75938;BME280;64615;32.062;34.834;2023-12-07T11:56:56;101193.75;;;23.84;53.07
75938;BME280;64615;32.062;34.834;2023-12-07T11:59:24;101187.50;;;23.83;53.15
75938;BME280;64615;32.062;34.834;2023-12-07T12:01:52;101198.38;;;23.83;53.07
75938;BME280;64615;32.062;34.834;2023-12-07T12:04:18;101190.22;;;23.83;53.14
75938;BME280;64615;32.062;34.834;2023-12-07T12:06:44;101192.94;;;23.83;53.54
75938;BME280;64615;32.062;34.834;2023-12-07T12:09:14;101194.81;;;23.83;53.57
75938;BME280;64615;32.062;34.834;2023-12-07T12:11:49;101187.50;;;23.83;54.02
75938;BME280;64615;32.062;34.834;2023-12-07T12:14:17;101188.31;;;23.84;53.97
75938;BME280;64615;32.062;34.834;2023-12-07T12:16:46;101188.06;;;23.85;54.64
75938;BME280;64615;32.062;34.834;2023-12-07T12:19:12;101188.06;;;23.85;54.60
75938;BME280;64615;32.062;34.834;2023-12-07T12:21:41;101184.53;;;23.85;54.90
75938;BME280;64615;32.062;34.834;2023-12-07T12:24:09;101186.41;;;23.84;54.58
75938;BME280;64615;32.062;34.834;2023-12-07T12:26:36;101171.47;;;23.87;54.44
75938;BME280;64615;32.062;34.834;2023-12-07T12:29:04;101176.38;;;23.85;54.61
75938;BME280;64615;32.062;34.834;2023-12-07T12:31:30;101168.22;;;23.85;54.65
75938;BME280;64615;32.062;34.834;2023-12-07T12:33:56;101165.75;;;23.83;54.72
75938;BME280;64615;32.062;34.834;2023-12-07T12:36:21;101169.81;;;23.81;54.71
75938;BME280;64615;32.062;34.834;2023-12-07T12:38:49;101174.41;;;23.80;54.44
75938;BME280;64615;32.062;34.834;2023-12-07T12:41:18;101180.94;;;23.79;54.37
75938;BME280;64615;32.062;34.834;2023-12-07T12:43:44;101175.50;;;23.79;54.61
75938;BME280;64615;32.062;34.834;2023-12-07T12:46:10;101173.34;;;23.81;54.20